createdAt,value
2022-08-14T07:10:25.639Z,100.00
2022-08-14T07:13:01.551Z,100.00
2022-08-14T07:15:39.637Z,100.00
2022-08-14T07:18:10.233Z,100.00
2022-08-14T07:20:39.981Z,100.00
2022-08-14T07:23:20.932Z,100.00
2022-08-14T07:25:53.061Z,100.00
2022-08-14T07:28:35.945Z,100.00
2022-08-14T07:31:12.174Z,100.00
2022-08-14T07:33:50.057Z,100.00
2022-08-14T07:36:26.983Z,100.00
2022-08-14T07:39:02.980Z,100.00
2022-08-14T07:41:42.421Z,100.00
2022-08-14T07:44:29.154Z,99.36
2022-08-14T07:47:00.764Z,100.00
2022-08-14T07:49:28.769Z,97.69
2022-08-14T07:51:56.867Z,98.17
2022-08-14T07:54:30.263Z,100.00
2022-08-14T07:57:01.138Z,100.00
2022-08-14T07:59:44.143Z,100.00
2022-08-14T08:02:19.202Z,100.00
2022-08-14T08:04:53.984Z,100.00
2022-08-14T08:07:29.380Z,100.00
2022-08-14T08:10:00.892Z,97.13
2022-08-14T08:12:32.583Z,99.55
2022-08-14T08:15:03.251Z,98.84
2022-08-14T08:17:38.691Z,96.50
2022-08-14T08:20:16.168Z,95.96
2022-08-14T08:22:55.918Z,93.70
2022-08-14T08:25:28.151Z,89.03
2022-08-14T08:28:08.297Z,83.14
2022-08-14T08:30:49.347Z,85.50
2022-08-14T08:33:19.269Z,84.90
2022-08-14T08:35:50.682Z,83.25
2022-08-14T08:39:14.721Z,79.69
2022-08-14T08:41:11.094Z,75.94
2022-08-14T08:43:45.865Z,75.48
2022-08-14T08:46:21.338Z,73.28
2022-08-14T08:51:37.550Z,74.91
2022-08-14T08:54:06.679Z,72.04
2022-08-14T08:56:39.880Z,71.88
2022-08-14T08:59:27.246Z,72.62
2022-08-14T09:02:03.973Z,70.71
2022-08-14T09:04:45.550Z,69.36
2022-08-14T09:07:27.970Z,67.98
2022-08-14T09:09:58.754Z,66.24
2022-08-14T09:12:32.318Z,68.43
2022-08-14T09:15:12.912Z,65.70
2022-08-14T09:17:42.467Z,62.53
2022-08-14T09:20:12.682Z,61.16
2022-08-14T11:46:37.810Z,36.74
2022-08-14T11:49:06.633Z,38.02
2022-08-14T11:51:42.959Z,38.53
2022-08-14T11:54:33.661Z,37.72
2022-08-14T11:57:02.678Z,35.30
2022-08-14T11:59:35.094Z,35.22
